Hubert, Texas
Current Conditions -  °F | °C
As of 6:50 PM on Monday 20 Oct 2014 (Local Time) from KRBO Reporting Station
Overcast Overcast  
Wind Chill: 75°   Ceiling: 11000
Heat Index: 75°   Visibility: 10mi
Dew Point: 71°   Wind: 7mph
Humidity: 88%   Direction: 50°NE
Pressure: 29.96"   Gusts: NA
Location:  28.0654°N, 97.7489°W
Report Text: KRBO 202350Z AUTO 05006KT 10SM OVC110 24/22 A2996 RMK AO2 T02380217 10247 20232
Loading
Personal Weather Stations






























Interactive Weather Map
Tropical Storm Tracking
New forecast layout! Learn more

10-Day Weather Forecast

Advertisements
Track Severe Weather on mobile